Astoria, IL (61501)

9:07 AM CST on December 08, 2016 (GMT -0600)
| | Change Station

Elev -9999 ft 0.00 °N, 0.00 °E | Updated 4 minutes ago

Overcast
Overcast
°F
Feels Like °F
N
Wind Variable Wind from North
Gusts mph

Today
High -- | Low -- °F
--% Chance of Precip.
Yesterday
High -- | Low -- °F
Precip. -- in
Pressure 30.45 in
Visibility 10.0 miles
Clouds Mostly Cloudy 2100 ft
Dew Point Not available.
Humidity Not available.
Rainfall --
Snow Depth Not available.
7:11 AM 4:35 PM
Waxing Gibbous, 64% visible
METAR KMQB 081450Z AUTO 30023KT 10SM BKN021 M08/M12 A3045 RMK AO2 T10781121
Pressure 30.45 in
Visibility 10.0 miles
Clouds Mostly Cloudy 2100 ft
Dew Point Not available.
Humidity Not available.
Rainfall --
Snow Depth Not available.
7:11 AM 4:35 PM
Waxing Gibbous, 64% visible
METAR KMQB 081450Z AUTO 30023KT 10SM BKN021 M08/M12 A3045 RMK AO2 T10781121

10-Day Weather Forecast

Almanac

Astronomy

Dec. 08, 2016 Rise Set
Actual Time
Civil Twilight
Nautical Twilight
Astronomical Twilight
Moon
Length of Visible Light
Length of Day
Tomorrow will be .
, % of the Moon is Illuminated

Today's Extremes

State Highs State Lows

Community

WunderPhotos

Upload Photos

1,956,268 photos uploaded!

WunderBlog® & News

Nearby

Air Quality

  Air Quality AQ Index Pollutant
Not available.

Snow Depth

Station Depth Elevation

Earthquake Activity

City Distance Mag. Time & Date
Minimum magnitude displayed is 2.5.

Coastal Water Temperatures

Place Temperature

Stations

Nearby Weather Stations

Station Location Temp. Windchill Dew Point Humidity Wind Precip. Elev Updated Type
                   

Watches & Warnings

There are currently no watches in effect.